createdAt,value
2023-05-05T00:02:11.348Z,60.38
2023-05-05T00:04:38.886Z,60.32
2023-05-05T00:07:06.316Z,60.39
2023-05-05T00:09:33.799Z,60.14
2023-05-05T00:12:01.343Z,60.33
2023-05-05T00:14:28.786Z,60.95
2023-05-05T00:16:56.339Z,59.95
2023-05-05T00:19:25.231Z,60.08
2023-05-05T00:21:53.028Z,60.10
2023-05-05T00:24:20.497Z,60.81
2023-05-05T00:26:47.938Z,60.91
2023-05-05T00:29:15.558Z,60.64
2023-05-05T00:31:43.080Z,60.92
2023-05-05T00:34:11.015Z,61.24
2023-05-05T00:36:39.877Z,61.83
2023-05-05T00:39:07.431Z,61.73
2023-05-05T00:41:34.921Z,67.59
2023-05-05T00:44:02.448Z,63.56
2023-05-05T00:46:32.696Z,63.46
2023-05-05T00:49:01.259Z,61.98
2023-05-05T00:51:29.571Z,62.79
2023-05-05T00:53:58.410Z,61.94
2023-05-05T00:58:54.992Z,62.23
2023-05-05T01:01:22.943Z,62.22
2023-05-05T01:03:50.492Z,62.59
2023-05-05T01:06:38.335Z,62.36
2023-05-05T01:09:17.548Z,62.09
2023-05-05T01:11:52.384Z,61.67
2023-05-05T01:14:23.904Z,62.37
2023-05-05T01:16:58.220Z,61.78
2023-05-05T01:19:59.251Z,62.64
2023-05-05T01:22:33.942Z,62.95
2023-05-05T01:25:40.236Z,62.56
2023-05-05T01:28:18.180Z,62.54
2023-05-05T01:31:01.511Z,62.91
2023-05-05T01:33:36.844Z,65.09
2023-05-05T01:36:08.507Z,64.22
2023-05-05T01:38:41.715Z,62.81
2023-05-05T01:41:13.955Z,64.85
2023-05-05T01:43:45.695Z,63.11
2023-05-05T01:46:14.546Z,64.49
2023-05-05T01:48:45.082Z,64.05
2023-05-05T01:51:13.593Z,63.31
2023-05-05T01:53:41.404Z,64.86
2023-05-05T01:56:10.443Z,63.51
2023-05-05T01:58:38.881Z,65.42
2023-05-05T02:01:07.161Z,64.01
2023-05-05T02:03:37.121Z,64.26
2023-05-05T02:06:08.304Z,68.53
2023-05-05T02:08:37.827Z,64.43
2023-05-05T02:11:06.202Z,64.26
2023-05-05T02:13:34.041Z,63.75
2023-05-05T02:16:03.862Z,63.85
2023-05-05T02:18:35.688Z,63.37
2023-05-05T02:21:03.633Z,63.17
2023-05-05T02:23:32.581Z,62.77
2023-05-05T02:26:05.733Z,63.75
2023-05-05T02:28:40.827Z,63.84
2023-05-05T02:31:10.482Z,63.92
2023-05-05T02:33:39.319Z,64.03
2023-05-05T02:36:12.635Z,66.41
2023-05-05T02:38:44.385Z,66.08
2023-05-05T02:41:17.670Z,65.53
2023-05-05T02:43:47.097Z,65.73
2023-05-05T02:46:14.565Z,67.48
2023-05-05T02:48:42.286Z,65.67
2023-05-05T02:51:09.773Z,64.45
2023-05-05T02:53:37.493Z,65.14
2023-05-05T02:56:17.205Z,64.32
2023-05-05T02:58:52.759Z,65.09
2023-05-05T03:01:30.295Z,64.81
2023-05-05T03:04:05.990Z,64.07
2023-05-05T03:06:40.079Z,66.89
2023-05-05T03:09:11.023Z,65.82
2023-05-05T03:11:44.940Z,66.05
2023-05-05T03:14:16.813Z,66.01
2023-05-05T03:16:45.270Z,67.62
2023-05-05T03:19:14.424Z,66.49
2023-05-05T03:21:42.633Z,67.98
2023-05-05T03:24:15.237Z,66.91
2023-05-05T03:26:45.908Z,66.67
2023-05-05T03:29:13.939Z,67.50
2023-05-05T03:31:41.792Z,66.03
2023-05-05T03:34:09.698Z,65.24
2023-05-05T03:36:37.393Z,65.24
2023-05-05T03:39:05.004Z,66.31
2023-05-05T03:41:32.465Z,65.74
2023-05-05T03:44:01.349Z,65.44
2023-05-05T03:46:28.880Z,65.23
2023-05-05T03:48:56.957Z,65.56
2023-05-05T03:51:25.209Z,65.19
2023-05-05T03:53:52.677Z,65.55
2023-05-05T03:56:20.289Z,64.65
2023-05-05T03:58:47.826Z,65.14
2023-05-05T04:01:16.618Z,66.13
2023-05-05T04:03:44.164Z,66.85
2023-05-05T04:06:11.636Z,65.51
2023-05-05T04:08:39.074Z,68.41
2023-05-05T04:11:06.650Z,66.01
2023-05-05T04:13:34.092Z,66.42
2023-05-05T04:16:01.674Z,65.95
2023-05-05T04:18:31.154Z,65.63
2023-05-05T04:20:58.609Z,65.70
2023-05-05T04:23:26.163Z,65.60
2023-05-05T04:25:53.631Z,65.92
2023-05-05T04:28:21.972Z,68.34
2023-05-05T04:30:49.497Z,66.71
2023-05-05T04:33:16.932Z,69.36
2023-05-05T04:35:45.757Z,67.36
2023-05-05T04:38:13.192Z,69.11
2023-05-05T04:40:41.173Z,69.54
2023-05-05T04:43:08.617Z,69.93
2023-05-05T04:45:36.078Z,69.37
2023-05-05T04:48:05.044Z,68.70
2023-05-05T04:50:32.653Z,68.33
2023-05-05T04:53:01.497Z,67.93
2023-05-05T04:55:29.330Z,67.48
2023-05-05T04:57:56.801Z,66.76
2023-05-05T05:00:24.389Z,65.17
2023-05-05T05:02:52.422Z,65.38
2023-05-05T05:05:20.063Z,63.20
2023-05-05T05:07:47.520Z,63.28
2023-05-05T05:10:17.085Z,63.01
2023-05-05T05:12:44.549Z,62.92
2023-05-05T05:15:14.239Z,64.80
2023-05-05T05:17:41.726Z,65.15
2023-05-05T05:20:10.092Z,65.35
2023-05-05T05:22:38.837Z,64.59
2023-05-05T05:25:06.494Z,66.35
2023-05-05T05:27:35.332Z,65.17
2023-05-05T05:30:02.975Z,64.99
2023-05-05T05:32:30.640Z,67.28
2023-05-05T05:34:58.140Z,64.05
2023-05-05T05:37:29.129Z,63.70
2023-05-05T05:39:56.781Z,64.37
2023-05-05T05:42:24.212Z,62.53
2023-05-05T05:44:53.114Z,61.14
2023-05-05T05:47:20.610Z,59.16
2023-05-05T05:49:48.032Z,59.54
2023-05-05T05:52:15.482Z,61.23
2023-05-05T05:54:42.945Z,61.12
2023-05-05T05:57:10.471Z,58.11
2023-05-05T05:59:37.964Z,59.72
2023-05-05T06:02:07.112Z,59.27
2023-05-05T06:04:34.661Z,58.72
2023-05-05T06:07:02.210Z,60.41
2023-05-05T06:09:29.690Z,61.25
2023-05-05T06:11:57.142Z,61.28
2023-05-05T06:14:24.642Z,61.14
2023-05-05T06:16:52.686Z,60.78
2023-05-05T06:19:21.532Z,60.87
2023-05-05T06:21:49.067Z,61.19
2023-05-05T06:24:16.671Z,60.44
2023-05-05T06:26:44.157Z,60.20
2023-05-05T06:29:12.435Z,59.88
2023-05-05T06:31:39.906Z,61.22
2023-05-05T06:34:07.519Z,60.88
2023-05-05T06:36:36.451Z,61.68
2023-05-05T06:39:03.988Z,60.44
2023-05-05T06:41:31.717Z,61.51
2023-05-05T06:43:59.166Z,62.12
2023-05-05T06:46:27.150Z,61.81
2023-05-05T06:48:54.685Z,61.59
2023-05-05T06:51:22.653Z,63.11
2023-05-05T06:53:51.496Z,61.46
2023-05-05T06:56:19.302Z,63.54
2023-05-05T06:58:46.799Z,60.56
2023-05-05T07:01:14.526Z,63.33
2023-05-05T07:03:42.056Z,61.14
2023-05-05T07:06:09.655Z,62.72
2023-05-05T07:08:37.175Z,59.95
2023-05-05T07:11:06.031Z,61.08
2023-05-05T07:13:33.517Z,63.63
2023-05-05T07:16:01.185Z,61.85
2023-05-05T07:18:28.689Z,61.52
2023-05-05T07:20:56.110Z,61.42
2023-05-05T07:23:23.560Z,60.11
2023-05-05T07:25:51.133Z,61.89
2023-05-05T07:28:20.065Z,62.33
2023-05-05T07:30:47.529Z,61.75
2023-05-05T07:33:15.738Z,61.37
2023-05-05T07:35:43.183Z,63.15
2023-05-05T07:38:11.081Z,62.13
2023-05-05T07:40:38.603Z,62.56
2023-05-05T07:43:06.124Z,61.80
2023-05-05T07:45:34.999Z,62.13
2023-05-05T07:48:02.613Z,62.17
2023-05-05T07:50:30.240Z,60.03
2023-05-05T07:53:10.671Z,60.74
2023-05-05T07:55:41.766Z,61.93
2023-05-05T07:58:10.709Z,59.70
2023-05-05T08:00:39.652Z,59.29
2023-05-05T08:03:09.725Z,60.99
2023-05-05T08:05:39.069Z,61.55
2023-05-05T08:08:06.932Z,60.79
2023-05-05T08:10:34.377Z,62.02
2023-05-05T08:13:01.992Z,61.62
2023-05-05T08:15:29.595Z,59.67
2023-05-05T08:17:58.437Z,58.77
2023-05-05T08:20:29.413Z,61.94
2023-05-05T08:22:56.952Z,60.23
2023-05-05T08:25:26.747Z,58.96
2023-05-05T08:27:54.551Z,60.14
2023-05-05T08:30:22.269Z,62.74
2023-05-05T08:32:49.745Z,61.54
2023-05-05T08:35:18.803Z,62.41
2023-05-05T08:37:46.341Z,59.77
2023-05-05T08:40:14.970Z,62.75
2023-05-05T08:42:42.631Z,60.17
2023-05-05T08:45:11.501Z,61.50
2023-05-05T08:47:40.293Z,60.98
2023-05-05T08:50:11.156Z,61.03
2023-05-05T08:52:41.879Z,61.78
2023-05-05T08:55:16.210Z,61.79
2023-05-05T08:57:50.351Z,58.39
2023-05-05T09:00:19.591Z,56.68
2023-05-05T09:02:47.780Z,57.81
2023-05-05T09:05:15.761Z,57.69
2023-05-05T09:07:44.810Z,58.25
2023-05-05T09:10:13.114Z,58.07
2023-05-05T09:12:41.388Z,59.69
2023-05-05T09:15:10.129Z,57.55
2023-05-05T09:17:38.051Z,57.60
2023-05-05T09:20:07.687Z,61.00
2023-05-05T09:22:37.047Z,58.83
2023-05-05T09:25:07.565Z,57.89
2023-05-05T09:27:40.683Z,57.37
2023-05-05T09:30:09.945Z,59.15
2023-05-05T09:32:55.809Z,57.28
2023-05-05T09:35:24.349Z,56.37
2023-05-05T09:37:52.013Z,58.13
2023-05-05T09:40:22.131Z,55.17
2023-05-05T09:42:49.789Z,56.93
2023-05-05T09:45:27.984Z,56.44
2023-05-05T09:47:59.602Z,56.48
2023-05-05T09:50:30.133Z,57.54
2023-05-05T09:52:58.488Z,55.70
2023-05-05T09:55:27.344Z,55.86
2023-05-05T09:57:55.061Z,56.59
2023-05-05T10:00:22.934Z,55.26
2023-05-05T10:02:50.446Z,55.43
2023-05-05T10:05:19.397Z,56.58
2023-05-05T10:07:48.764Z,53.85
2023-05-05T10:10:18.387Z,54.30
2023-05-05T10:12:49.313Z,54.73
2023-05-05T10:15:17.473Z,56.39
2023-05-05T10:17:58.373Z,58.81
2023-05-05T10:20:34.176Z,55.17
2023-05-05T10:23:06.515Z,55.71
2023-05-05T10:25:41.224Z,54.56
2023-05-05T10:28:16.819Z,53.56
2023-05-05T10:30:46.959Z,53.72
2023-05-05T10:33:31.557Z,52.19
2023-05-05T10:36:03.104Z,53.05
2023-05-05T10:38:32.344Z,52.58
2023-05-05T10:41:01.157Z,53.85
2023-05-05T10:43:31.893Z,54.59
2023-05-05T10:46:00.504Z,52.57
2023-05-05T10:48:35.491Z,53.20
2023-05-05T10:51:27.333Z,54.00
2023-05-05T10:54:11.370Z,54.94
2023-05-05T10:56:41.738Z,53.51
2023-05-05T10:59:44.383Z,54.38
2023-05-05T11:02:22.792Z,52.63
2023-05-05T11:05:08.162Z,54.29
2023-05-05T11:07:35.853Z,52.44
2023-05-05T11:10:05.048Z,54.11
2023-05-05T11:12:35.503Z,53.52
2023-05-05T11:15:38.279Z,54.88
2023-05-05T11:18:08.229Z,54.66
2023-05-05T11:21:03.491Z,55.56
2023-05-05T11:23:31.623Z,56.56
2023-05-05T11:25:59.196Z,56.70
2023-05-05T11:28:29.921Z,56.27
2023-05-05T11:31:20.894Z,58.04
2023-05-05T11:33:48.913Z,58.61
2023-05-05T11:36:17.783Z,58.18
2023-05-05T11:39:04.818Z,59.36
2023-05-05T11:41:46.262Z,61.69
2023-05-05T11:44:15.139Z,61.47
2023-05-05T11:47:22.739Z,59.66
2023-05-05T11:49:50.727Z,58.84
2023-05-05T11:52:18.327Z,58.81
2023-05-05T11:54:48.529Z,58.83
2023-05-05T11:57:19.266Z,58.10
2023-05-05T11:59:52.117Z,58.38
2023-05-05T12:02:22.342Z,59.17
2023-05-05T12:04:50.480Z,60.34
2023-05-05T12:07:19.131Z,59.33
2023-05-05T12:09:48.164Z,59.56
2023-05-05T12:12:16.368Z,57.19
2023-05-05T12:14:51.970Z,58.43
2023-05-05T12:17:22.428Z,57.20
2023-05-05T12:19:53.435Z,58.80
2023-05-05T12:22:23.282Z,58.71
2023-05-05T12:24:55.758Z,59.63
2023-05-05T12:27:23.959Z,61.34
2023-05-05T12:29:51.622Z,58.67
2023-05-05T12:32:22.108Z,59.68
2023-05-05T12:34:53.727Z,61.61
2023-05-05T12:37:22.075Z,56.52
2023-05-05T12:39:49.780Z,55.91
2023-05-05T12:42:17.954Z,57.09
2023-05-05T12:44:46.629Z,59.44
2023-05-05T12:47:14.745Z,55.50
2023-05-05T12:49:51.484Z,58.13
2023-05-05T12:52:20.709Z,58.39
2023-05-05T12:54:56.060Z,58.77
2023-05-05T12:57:24.252Z,60.01
2023-05-05T12:59:52.726Z,58.51
2023-05-05T13:02:21.465Z,60.50
2023-05-05T13:04:52.059Z,60.33
2023-05-05T13:07:20.989Z,57.72
2023-05-05T13:09:49.766Z,54.30
2023-05-05T13:12:19.314Z,53.72
2023-05-05T13:14:47.484Z,53.69
2023-05-05T13:17:15.400Z,52.32
2023-05-05T13:19:45.906Z,54.00
2023-05-05T13:22:15.115Z,52.55
2023-05-05T13:24:51.618Z,52.21
2023-05-05T13:27:20.032Z,52.47
2023-05-05T13:29:47.916Z,53.52
2023-05-05T13:32:15.485Z,54.89
2023-05-05T13:34:43.976Z,56.77
2023-05-05T13:37:11.528Z,57.63
2023-05-05T13:39:40.566Z,58.94
2023-05-05T13:42:08.026Z,59.47
2023-05-05T13:44:37.865Z,59.96
2023-05-05T13:47:05.669Z,57.89
2023-05-05T13:49:33.229Z,57.55
2023-05-05T13:52:02.751Z,58.73
2023-05-05T13:54:30.585Z,57.81
2023-05-05T13:56:59.951Z,56.86
2023-05-05T13:59:27.549Z,54.46
2023-05-05T14:01:55.096Z,55.37
2023-05-05T14:04:22.721Z,58.17
2023-05-05T14:06:50.388Z,57.63
2023-05-05T14:09:17.849Z,62.19
2023-05-05T14:11:47.429Z,65.95
2023-05-05T14:14:16.313Z,66.63
2023-05-05T14:16:43.808Z,72.09
2023-05-05T14:19:11.263Z,70.71
2023-05-05T14:21:38.775Z,80.65
2023-05-05T14:24:06.855Z,79.17
2023-05-05T14:26:34.200Z,82.15
2023-05-05T14:29:01.666Z,79.84
2023-05-05T14:31:30.533Z,78.64
2023-05-05T14:33:58.016Z,89.73
2023-05-05T14:36:26.731Z,96.05
2023-05-05T14:38:54.283Z,93.06
2023-05-05T14:41:21.835Z,88.22
2023-05-05T14:43:49.335Z,90.62
2023-05-05T14:46:16.960Z,87.92
2023-05-05T14:48:47.153Z,90.39
2023-05-05T14:51:15.126Z,86.82
2023-05-05T14:53:43.289Z,93.31
2023-05-05T14:56:10.638Z,88.43
2023-05-05T14:58:38.350Z,85.36
2023-05-05T15:01:05.875Z,84.50
2023-05-05T15:03:33.573Z,81.60
2023-05-05T15:06:02.466Z,77.41
2023-05-05T15:08:29.973Z,75.38
2023-05-05T15:10:57.471Z,74.29
2023-05-05T15:13:25.027Z,75.19
2023-05-05T15:15:52.566Z,71.41
2023-05-05T15:18:20.076Z,73.84
2023-05-05T15:20:47.524Z,71.84
2023-05-05T15:23:16.470Z,70.43
2023-05-05T15:25:44.041Z,67.11
2023-05-05T15:28:11.513Z,66.24
2023-05-05T15:30:38.993Z,68.61
2023-05-05T15:33:06.565Z,69.40
2023-05-05T15:35:34.058Z,68.29
2023-05-05T15:38:04.883Z,68.92
2023-05-05T15:40:33.789Z,70.52
2023-05-05T15:43:01.357Z,70.94
2023-05-05T15:45:28.822Z,75.23
2023-05-05T15:47:56.353Z,76.16
2023-05-05T15:50:23.905Z,87.69
2023-05-05T15:52:51.526Z,81.37
2023-05-05T15:55:19.013Z,78.72
2023-05-05T15:57:47.839Z,79.19
2023-05-05T16:00:16.080Z,82.52
2023-05-05T16:02:43.601Z,87.98
2023-05-05T16:05:12.216Z,88.95
2023-05-05T16:07:39.908Z,90.76
2023-05-05T16:10:09.811Z,90.86
2023-05-05T16:12:38.318Z,84.26
2023-05-05T16:15:10.520Z,93.39
2023-05-05T16:17:38.618Z,97.87
2023-05-05T16:20:07.086Z,96.66
2023-05-05T16:22:34.560Z,88.13
2023-05-05T16:25:02.060Z,82.41
2023-05-05T16:27:29.565Z,88.62
2023-05-05T16:29:59.527Z,85.14
2023-05-05T16:32:28.675Z,91.89
2023-05-05T16:34:56.181Z,91.37
2023-05-05T16:37:23.872Z,81.83
2023-05-05T16:39:51.415Z,81.59
2023-05-05T16:42:19.149Z,93.70
2023-05-05T16:44:46.664Z,92.43
2023-05-05T16:47:14.201Z,92.99
2023-05-05T16:49:43.028Z,98.81
2023-05-05T16:52:13.223Z,100.00
2023-05-05T16:54:41.504Z,97.42
2023-05-05T16:57:09.044Z,92.72
2023-05-05T16:59:36.938Z,97.13
2023-05-05T17:02:04.438Z,99.92
2023-05-05T17:04:34.728Z,100.00
2023-05-05T17:07:03.607Z,100.00
2023-05-05T17:09:31.082Z,100.00
2023-05-05T17:11:58.558Z,100.00
2023-05-05T17:14:27.194Z,96.59
2023-05-05T17:16:55.243Z,98.28
2023-05-05T17:19:22.758Z,86.37
2023-05-05T17:21:50.238Z,87.06
2023-05-05T17:24:19.017Z,93.64
2023-05-05T17:26:46.702Z,100.00
2023-05-05T17:29:15.160Z,100.00
2023-05-05T17:31:42.715Z,95.29
2023-05-05T17:34:13.197Z,86.29
2023-05-05T17:36:45.819Z,86.24
2023-05-05T17:39:13.612Z,88.37
2023-05-05T17:41:42.778Z,100.00
2023-05-05T17:44:10.351Z,100.00
2023-05-05T17:46:38.169Z,100.00
2023-05-05T17:49:05.729Z,97.70
2023-05-05T17:51:33.262Z,96.13
2023-05-05T17:54:00.698Z,91.57
2023-05-05T17:56:28.173Z,93.83
2023-05-05T17:58:56.999Z,94.27
2023-05-05T18:01:25.665Z,97.20
2023-05-05T18:04:01.388Z,86.85
2023-05-05T18:06:29.278Z,95.28
2023-05-05T18:08:57.302Z,100.00
2023-05-05T18:11:27.511Z,86.65
2023-05-05T18:13:57.010Z,92.09
2023-05-05T18:16:24.551Z,84.08
2023-05-05T18:18:52.082Z,87.68
2023-05-05T18:21:19.557Z,93.70
2023-05-05T18:23:47.044Z,97.72
2023-05-05T18:26:14.529Z,96.21
2023-05-05T18:28:42.021Z,91.27
2023-05-05T18:31:10.877Z,82.32
2023-05-05T18:33:38.444Z,82.08
2023-05-05T18:36:06.488Z,80.33
2023-05-05T18:38:33.940Z,79.63
2023-05-05T18:41:01.560Z,81.18
2023-05-05T18:43:29.018Z,89.79
2023-05-05T18:45:56.527Z,80.60
2023-05-05T18:48:26.103Z,78.17
2023-05-05T18:50:53.569Z,78.09
2023-05-05T18:53:21.051Z,85.83
2023-05-05T18:55:49.221Z,81.67
2023-05-05T18:58:16.934Z,84.21
2023-05-05T19:00:44.764Z,82.02
2023-05-05T19:03:12.487Z,94.45
2023-05-05T19:05:41.963Z,94.81
2023-05-05T19:08:09.491Z,96.98
2023-05-05T19:10:37.388Z,95.98
2023-05-05T19:13:04.986Z,93.21
2023-05-05T19:15:32.665Z,91.03
2023-05-05T19:18:00.585Z,90.57
2023-05-05T19:20:30.730Z,94.72
2023-05-05T19:23:03.722Z,93.55
2023-05-05T19:25:31.254Z,97.19
2023-05-05T19:27:59.310Z,96.92
2023-05-05T19:30:26.882Z,99.91
2023-05-05T19:32:54.430Z,99.06
2023-05-05T19:35:22.289Z,100.00
2023-05-05T19:37:49.721Z,100.00
2023-05-05T19:40:18.537Z,100.00
2023-05-05T19:42:46.003Z,100.00
2023-05-05T19:45:13.471Z,100.00
2023-05-05T19:47:40.958Z,100.00
2023-05-05T19:50:09.133Z,100.00
2023-05-05T19:52:38.273Z,100.00
2023-05-05T19:55:06.648Z,100.00
2023-05-05T19:57:35.570Z,100.00
2023-05-05T20:00:04.883Z,100.00
2023-05-05T20:02:33.748Z,100.00
2023-05-05T20:05:03.055Z,100.00
2023-05-05T20:07:30.519Z,100.00
2023-05-05T20:09:58.708Z,100.00
2023-05-05T20:12:26.471Z,100.00
2023-05-05T20:14:55.401Z,100.00
2023-05-05T20:17:23.678Z,100.00
2023-05-05T20:19:51.009Z,100.00
2023-05-05T20:22:18.816Z,100.00
2023-05-05T20:24:46.313Z,100.00
2023-05-05T20:27:13.751Z,100.00
2023-05-05T20:29:41.184Z,100.00
2023-05-05T20:32:10.015Z,100.00
2023-05-05T20:34:38.730Z,100.00
2023-05-05T20:37:06.223Z,100.00
2023-05-05T20:39:33.720Z,100.00
2023-05-05T20:42:01.157Z,100.00
2023-05-05T20:44:28.578Z,100.00
2023-05-05T20:46:56.105Z,100.00
2023-05-05T20:49:24.970Z,100.00
2023-05-05T20:51:52.460Z,93.24
2023-05-05T20:54:19.907Z,91.74
2023-05-05T20:56:47.338Z,95.94
2023-05-05T20:59:14.849Z,91.73
2023-05-05T21:01:42.415Z,90.02
2023-05-05T21:04:09.924Z,98.36
2023-05-05T21:06:38.756Z,87.95
2023-05-05T21:09:06.549Z,86.71
2023-05-05T21:11:34.116Z,85.36
2023-05-05T21:14:01.557Z,86.18
2023-05-05T21:16:29.007Z,88.00
2023-05-05T21:18:56.459Z,86.59
2023-05-05T21:21:24.567Z,89.31
2023-05-05T21:23:55.071Z,86.63
2023-05-05T21:26:22.585Z,84.79
2023-05-05T21:28:50.047Z,84.71
2023-05-05T21:31:21.912Z,93.69
2023-05-05T21:33:49.599Z,85.33
2023-05-05T21:36:18.867Z,86.61
2023-05-05T21:38:46.312Z,86.04
2023-05-05T21:41:15.087Z,84.56
2023-05-05T21:43:42.523Z,88.58
2023-05-05T21:46:10.032Z,99.10
2023-05-05T21:48:38.703Z,86.53
2023-05-05T21:51:06.618Z,88.22
2023-05-05T21:53:34.145Z,87.99
2023-05-05T21:56:02.278Z,85.18
2023-05-05T21:58:31.071Z,85.83
2023-05-05T22:00:58.500Z,85.18
2023-05-05T22:03:26.273Z,88.17
2023-05-05T22:05:53.845Z,88.46
2023-05-05T22:08:21.402Z,95.66
2023-05-05T22:10:48.836Z,88.67
2023-05-05T22:13:16.398Z,90.07
2023-05-05T22:15:47.252Z,86.03
2023-05-05T22:18:15.282Z,86.12
2023-05-05T22:20:43.192Z,84.68
2023-05-05T22:23:10.707Z,91.08
2023-05-05T22:25:38.435Z,98.17
2023-05-05T22:28:05.919Z,99.60
2023-05-05T22:30:33.549Z,100.00
2023-05-05T22:33:02.472Z,91.10
2023-05-05T22:35:30.062Z,91.02
2023-05-05T22:37:57.827Z,90.49
2023-05-05T22:40:25.343Z,92.86
2023-05-05T22:42:52.896Z,87.33
2023-05-05T22:45:20.769Z,88.38
2023-05-05T22:47:48.229Z,93.63
2023-05-05T22:50:17.149Z,96.86
2023-05-05T22:52:44.610Z,88.10
2023-05-05T22:55:13.902Z,88.21
2023-05-05T22:57:42.152Z,90.61
2023-05-05T23:00:10.953Z,91.49
2023-05-05T23:02:38.672Z,89.87
2023-05-05T23:05:07.182Z,90.13
2023-05-05T23:07:36.059Z,93.60
2023-05-05T23:10:03.613Z,97.04
2023-05-05T23:12:31.225Z,98.33
2023-05-05T23:14:58.681Z,94.19
2023-05-05T23:17:26.189Z,99.92
2023-05-05T23:19:53.683Z,100.00
2023-05-05T23:22:21.138Z,96.67
2023-05-05T23:24:49.906Z,97.24
2023-05-05T23:27:17.358Z,94.03
2023-05-05T23:29:44.815Z,97.92
2023-05-05T23:32:12.244Z,96.66
2023-05-05T23:34:39.719Z,96.01
2023-05-05T23:37:07.204Z,99.39
2023-05-05T23:39:34.935Z,97.74
2023-05-05T23:42:03.725Z,98.68
2023-05-05T23:44:31.176Z,95.59
2023-05-05T23:46:58.609Z,99.00
2023-05-05T23:49:26.364Z,98.76
2023-05-05T23:51:53.852Z,98.18
2023-05-05T23:54:21.335Z,98.35
2023-05-05T23:56:48.764Z,96.14
2023-05-05T23:59:17.767Z,98.15
